ZSNB

Ningbo Lishe International Airport

Ningbo, China
TAF ZSNB 180228Z 1806/1906 03004MPS 5000 BR SCT040 TX22/1806Z TN11/1821Z
Issued Valid From Valid To
Oct-18 @ 02:28 UTC
(9 hours ago)
Oct-18 @ 06:00 UTC
(6 hours ago)
Oct-19 @ 06:00 UTC
(in 18 hours)
Oct-18 @ 06:00 to Oct-19 @ 06:00
TAF ZSNB 180228Z 1806/1906 03004MPS 5000 BR SCT040 TX22/1806Z TN11/1821Z
Wind Visibility Clouds Conditions
30° at 8 knots 5,005 meters
  • Scattered at 4,000' AGL
  • Mist
TAF ZSNB 180228Z 1806/1906 03004MPS 5000 BR SCT040 TX22/1806Z TN11/1821Z
Issued Oct-18 @ 02:28 UTC
(9 hours ago)
Valid From Oct-18 @ 06:00 UTC
(6 hours ago)
Valid To Oct-19 @ 06:00 UTC
(in 18 hours)
Oct-18 @ 06:00 - Oct-19 @ 06:00
Wind Visibility
30° at 8 knots 5,005 meters
Clouds
  • Scattered at 4,000' AGL
Conditions
  • Mist